createdAt,value
2019-02-04T00:02:03.683Z,13.90
2019-02-04T00:04:33.537Z,15.70
2019-02-04T00:07:03.189Z,13.30
2019-02-04T00:09:33.089Z,13.73
2019-02-04T00:12:02.705Z,13.37
2019-02-04T00:14:32.316Z,16.53
2019-02-04T00:17:01.968Z,13.93
2019-02-04T00:19:31.590Z,14.37
2019-02-04T00:22:01.218Z,17.40
2019-02-04T00:24:31.209Z,13.13
2019-02-04T00:27:00.824Z,16.80
2019-02-04T00:29:30.437Z,15.17
2019-02-04T00:32:00.047Z,16.20
2019-02-04T00:34:29.662Z,21.53
2019-02-04T00:36:59.352Z,10.23
2019-02-04T00:39:28.972Z,16.47
2019-02-04T00:41:58.585Z,11.70
2019-02-04T00:44:28.198Z,14.03
2019-02-04T00:46:57.814Z,16.20
2019-02-04T00:49:27.425Z,15.77
2019-02-04T00:51:57.436Z,17.43
2019-02-04T00:54:27.035Z,17.67
2019-02-04T00:56:56.668Z,18.87
2019-02-04T00:59:26.355Z,17.77
2019-02-04T01:01:55.973Z,16.83
2019-02-04T01:04:25.585Z,17.77
2019-02-04T01:06:56.800Z,21.90
2019-02-04T01:09:26.486Z,22.73
2019-02-04T01:11:56.147Z,16.63
2019-02-04T01:14:25.764Z,19.10
2019-02-04T01:17:03.247Z,18.87
2019-02-04T01:19:26.693Z,19.00
2019-02-04T01:21:56.409Z,20.97
2019-02-04T01:24:26.437Z,21.63
2019-02-04T01:26:56.140Z,21.53
2019-02-04T01:29:25.866Z,19.53
2019-02-04T01:31:55.602Z,20.23
2019-02-04T01:34:25.452Z,22.80
2019-02-04T01:36:55.347Z,19.50
2019-02-04T01:39:24.967Z,24.13
2019-02-04T01:41:54.853Z,19.80
2019-02-04T01:44:24.771Z,21.83
2019-02-04T01:46:54.881Z,17.87
2019-02-04T01:49:24.851Z,22.47
2019-02-04T01:51:54.461Z,17.83
2019-02-04T01:54:24.857Z,19.85
2019-02-04T01:56:54.504Z,19.90
2019-02-04T01:59:24.717Z,16.90
2019-02-04T02:01:54.377Z,21.67
2019-02-04T02:04:24.509Z,19.95
2019-02-04T02:06:54.498Z,15.60
2019-02-04T02:09:25.077Z,23.55
2019-02-04T02:11:55.338Z,20.63
2019-02-04T02:14:25.481Z,21.93
2019-02-04T02:16:55.211Z,18.43
2019-02-04T02:19:24.834Z,25.93
2019-02-04T02:21:54.531Z,20.43
2019-02-04T02:24:24.586Z,23.98
2019-02-04T02:26:54.192Z,20.80
2019-02-04T02:29:24.457Z,21.20
2019-02-04T02:31:54.063Z,21.80
2019-02-04T02:34:24.611Z,25.03
2019-02-04T02:36:54.229Z,23.67
2019-02-04T02:39:24.631Z,27.05
2019-02-04T02:41:54.533Z,21.07
2019-02-04T02:44:24.511Z,21.02
2019-02-04T02:46:54.181Z,22.30
2019-02-04T02:49:24.796Z,17.73
2019-02-04T02:51:54.413Z,20.53
2019-02-04T02:54:24.978Z,20.15
2019-02-04T02:56:54.586Z,18.80
2019-02-04T02:59:24.734Z,20.15
2019-02-04T03:01:54.706Z,24.13
2019-02-04T03:04:24.746Z,18.90
2019-02-04T03:06:54.358Z,19.17
2019-02-04T03:09:24.785Z,23.75
2019-02-04T03:11:54.404Z,25.07
2019-02-04T03:14:25.101Z,23.35
2019-02-04T03:16:54.793Z,22.80
2019-02-04T03:19:25.494Z,23.33
2019-02-04T03:21:55.196Z,25.47
2019-02-04T03:24:24.966Z,21.80
2019-02-04T03:26:54.585Z,22.77
2019-02-04T03:29:24.951Z,21.93
2019-02-04T03:31:55.051Z,18.33
2019-02-04T03:34:24.965Z,19.30
2019-02-04T03:36:55.005Z,22.00
2019-02-04T03:39:25.033Z,20.20
2019-02-04T03:41:54.767Z,22.17
2019-02-04T03:44:25.241Z,18.67
2019-02-04T03:46:55.105Z,17.10
2019-02-04T03:49:25.262Z,16.40
2019-02-04T03:51:55.134Z,17.43
2019-02-04T03:54:25.420Z,18.10
2019-02-04T03:56:55.121Z,16.63
2019-02-04T03:59:25.159Z,14.63
2019-02-04T04:01:55.006Z,14.67
2019-02-04T04:04:25.506Z,17.12
2019-02-04T04:06:55.300Z,18.20
2019-02-04T04:09:25.380Z,13.58
2019-02-04T04:11:55.061Z,15.40
2019-02-04T04:14:25.249Z,16.45
2019-02-04T04:16:55.380Z,11.37
2019-02-04T04:19:25.274Z,12.23
2019-02-04T04:21:54.985Z,13.67
2019-02-04T04:24:25.225Z,16.65
2019-02-04T04:26:55.119Z,15.50
2019-02-04T04:29:26.082Z,12.73
2019-02-04T04:31:55.713Z,14.20
2019-02-04T04:34:25.385Z,14.00
2019-02-04T04:36:55.128Z,12.90
2019-02-04T04:39:25.261Z,17.60
2019-02-04T04:41:54.891Z,18.77
2019-02-04T04:44:25.203Z,19.73
2019-02-04T04:46:55.145Z,14.30
2019-02-04T04:49:25.313Z,17.82
2019-02-04T04:51:54.942Z,16.80
2019-02-04T04:54:25.251Z,21.10
2019-02-04T04:56:55.048Z,18.30
2019-02-04T04:59:25.254Z,25.27
2019-02-04T05:01:54.904Z,17.87
2019-02-04T05:04:25.529Z,21.90
2019-02-04T05:06:55.151Z,24.93
2019-02-04T05:09:25.388Z,25.35
2019-02-04T05:11:55.279Z,26.60
2019-02-04T05:14:25.330Z,23.50
2019-02-04T05:16:54.943Z,23.33
2019-02-04T05:19:25.305Z,20.95
2019-02-04T05:21:55.263Z,20.00
2019-02-04T05:24:25.437Z,22.87
2019-02-04T05:26:55.120Z,20.10
2019-02-04T05:29:25.598Z,24.00
2019-02-04T05:31:55.514Z,21.90
2019-02-04T05:34:25.546Z,20.45
2019-02-04T05:36:55.163Z,20.67
2019-02-04T05:39:25.457Z,22.73
2019-02-04T05:41:55.163Z,19.33
2019-02-04T05:44:25.636Z,19.48
2019-02-04T05:46:56.336Z,22.13
2019-02-04T05:49:26.038Z,18.13
2019-02-04T05:51:56.213Z,18.73
2019-02-04T05:54:25.836Z,17.60
2019-02-04T05:56:55.532Z,19.17
2019-02-04T05:59:26.326Z,22.07
2019-02-04T06:01:56.158Z,21.57
2019-02-04T06:04:26.001Z,19.60
2019-02-04T06:06:55.897Z,22.50
2019-02-04T06:09:25.546Z,19.60
2019-02-04T06:11:55.397Z,18.60
2019-02-04T06:14:25.971Z,16.73
2019-02-04T06:16:55.662Z,19.07
2019-02-04T06:19:25.913Z,23.50
2019-02-04T06:21:55.537Z,20.07
2019-02-04T06:24:25.530Z,19.80
2019-02-04T06:26:55.462Z,18.13
2019-02-04T06:29:25.649Z,21.75
2019-02-04T06:31:55.334Z,23.03
2019-02-04T06:34:25.702Z,24.20
2019-02-04T06:36:55.348Z,18.33
2019-02-04T06:39:25.918Z,20.50
2019-02-04T06:41:55.658Z,20.40
2019-02-04T06:44:26.501Z,19.85
2019-02-04T06:46:56.394Z,19.30
2019-02-04T06:49:26.019Z,21.53
2019-02-04T06:51:56.082Z,19.20
2019-02-04T06:54:25.942Z,17.70
2019-02-04T06:56:55.574Z,24.07
2019-02-04T06:59:26.481Z,22.50
2019-02-04T07:01:57.799Z,17.67
2019-02-04T07:04:27.612Z,23.07
2019-02-04T07:06:57.230Z,18.67
2019-02-04T07:09:27.006Z,17.67
2019-02-04T07:11:56.984Z,20.43
2019-02-04T07:14:26.623Z,18.17
2019-02-04T07:16:56.516Z,15.93
2019-02-04T07:19:26.294Z,19.97
2019-02-04T07:21:55.932Z,15.97
2019-02-04T07:24:25.985Z,17.35
2019-02-04T07:26:55.690Z,22.57
2019-02-04T07:29:25.877Z,17.73
2019-02-04T07:31:55.506Z,15.10
2019-02-04T07:34:26.036Z,13.90
2019-02-04T07:36:55.947Z,16.07
2019-02-04T07:39:26.203Z,15.25
2019-02-04T07:41:55.897Z,13.97
2019-02-04T07:44:25.990Z,12.53
2019-02-04T07:46:55.657Z,15.00
2019-02-04T07:49:34.993Z,13.68
2019-02-04T07:51:57.624Z,15.60
2019-02-04T07:54:27.668Z,16.17
2019-02-04T07:56:58.111Z,15.60
2019-02-04T07:59:27.998Z,16.57
2019-02-04T08:01:57.642Z,16.20
2019-02-04T08:04:27.262Z,16.40
2019-02-04T08:06:57.166Z,17.93
2019-02-04T08:09:26.785Z,18.73
2019-02-04T08:11:56.842Z,16.57
2019-02-04T08:14:26.590Z,14.73
2019-02-04T08:16:56.685Z,16.77
2019-02-04T08:19:26.456Z,17.67
2019-02-04T08:21:56.442Z,16.87
2019-02-04T08:24:26.093Z,17.67
2019-02-04T08:26:55.728Z,17.80
2019-02-04T08:29:26.037Z,17.57
2019-02-04T08:31:55.814Z,17.43
2019-02-04T08:34:26.070Z,19.57
2019-02-04T08:36:55.781Z,20.20
2019-02-04T08:39:26.659Z,20.60
2019-02-04T08:41:56.306Z,17.80
2019-02-04T08:44:26.035Z,22.95
2019-02-04T08:46:55.779Z,19.27
2019-02-04T08:49:26.071Z,20.65
2019-02-04T08:51:55.730Z,21.37
2019-02-04T08:54:26.092Z,22.45
2019-02-04T08:56:55.809Z,21.10
2019-02-04T08:59:26.036Z,23.50
2019-02-04T09:01:55.722Z,21.03
2019-02-04T09:04:26.116Z,23.60
2019-02-04T09:06:55.873Z,27.83
2019-02-04T09:09:26.030Z,25.62
2019-02-04T09:11:56.013Z,25.03
2019-02-04T09:14:26.418Z,28.25
2019-02-04T09:16:56.175Z,25.80
2019-02-04T09:19:26.095Z,23.95
2019-02-04T09:21:55.785Z,26.13
2019-02-04T09:24:26.077Z,24.77
2019-02-04T09:26:55.811Z,30.27
2019-02-04T09:29:26.048Z,28.83
2019-02-04T09:31:55.742Z,28.03
2019-02-04T09:34:26.161Z,28.05
2019-02-04T09:36:56.027Z,29.57
2019-02-04T09:39:26.267Z,30.52
2019-02-04T09:41:56.222Z,28.50
2019-02-04T09:44:26.021Z,30.90
2019-02-04T09:46:55.733Z,30.30
2019-02-04T09:49:26.102Z,31.20
2019-02-04T09:51:55.761Z,30.87
2019-02-04T09:54:26.083Z,31.12
2019-02-04T09:56:56.047Z,31.90
2019-02-04T09:59:26.112Z,37.13
2019-02-04T10:01:55.749Z,30.30
2019-02-04T10:04:26.035Z,34.08
2019-02-04T10:06:56.534Z,33.43
2019-02-04T10:09:26.232Z,32.47
2019-02-04T10:11:55.954Z,34.60
2019-02-04T10:14:27.015Z,34.03
2019-02-04T10:16:56.674Z,30.93
2019-02-04T10:19:26.332Z,33.47
2019-02-04T10:21:56.066Z,35.57
2019-02-04T10:24:26.148Z,34.83
2019-02-04T10:26:56.025Z,35.17
2019-02-04T10:29:26.564Z,35.50
2019-02-04T10:31:56.220Z,32.23
2019-02-04T10:34:26.237Z,33.60
2019-02-04T10:36:55.947Z,33.07
2019-02-04T10:39:26.439Z,33.98
2019-02-04T10:41:56.116Z,36.30
2019-02-04T10:44:26.142Z,34.27
2019-02-04T10:46:55.924Z,36.33
2019-02-04T10:49:26.218Z,33.28
2019-02-04T10:51:56.259Z,36.20
2019-02-04T10:54:26.271Z,30.88
2019-02-04T10:56:56.269Z,31.77
2019-02-04T10:59:26.315Z,36.83
2019-02-04T11:01:56.452Z,31.47
2019-02-04T11:04:26.701Z,33.40
2019-02-04T11:06:56.465Z,31.90
2019-02-04T11:09:26.320Z,31.17
2019-02-04T11:11:56.244Z,33.63
2019-02-04T11:14:26.252Z,32.58
2019-02-04T11:16:55.918Z,35.63
2019-02-04T11:19:26.343Z,29.42
2019-02-04T11:21:56.056Z,30.77
2019-02-04T11:24:26.247Z,27.67
2019-02-04T11:26:55.981Z,27.60
2019-02-04T11:29:26.242Z,28.90
2019-02-04T11:31:56.936Z,27.93
2019-02-04T11:34:26.615Z,30.30
2019-02-04T11:36:56.349Z,27.53
2019-02-04T11:39:26.225Z,31.20
2019-02-04T11:41:55.936Z,28.67
2019-02-04T11:44:26.328Z,26.42
2019-02-04T11:46:55.936Z,26.60
2019-02-04T11:49:26.289Z,23.60
2019-02-04T11:51:55.909Z,26.97
2019-02-04T11:54:26.363Z,23.57
2019-02-04T11:56:56.617Z,21.70
2019-02-04T11:59:26.277Z,22.10
2019-02-04T12:01:56.383Z,23.77
2019-02-04T12:04:26.419Z,23.07
2019-02-04T12:06:56.114Z,26.67
2019-02-04T12:09:26.217Z,21.20
2019-02-04T12:11:57.509Z,21.73
2019-02-04T12:14:27.150Z,24.53
2019-02-04T12:16:59.141Z,22.63
2019-02-04T12:19:28.120Z,22.27
2019-02-04T12:21:57.770Z,21.77
2019-02-04T12:24:28.189Z,21.70
2019-02-04T12:26:58.367Z,18.37
2019-02-04T12:29:28.305Z,23.17
2019-02-04T12:31:57.919Z,22.33
2019-02-04T12:34:28.593Z,18.97
2019-02-04T12:36:58.224Z,22.90
2019-02-04T12:39:28.465Z,19.73
2019-02-04T12:41:58.070Z,21.43
2019-02-04T12:44:28.056Z,18.23
2019-02-04T12:46:57.674Z,21.23
2019-02-04T12:49:27.644Z,19.30
2019-02-04T12:51:57.240Z,19.20
2019-02-04T12:54:26.940Z,20.60
2019-02-04T12:56:56.561Z,20.63
2019-02-04T12:59:26.485Z,23.85
2019-02-04T13:01:56.097Z,21.27
2019-02-04T13:04:26.377Z,17.60
2019-02-04T13:06:56.781Z,21.80
2019-02-04T13:09:26.633Z,16.83
2019-02-04T13:11:56.396Z,15.63
2019-02-04T13:14:26.779Z,16.05
2019-02-04T13:16:56.413Z,14.70
2019-02-04T13:19:26.314Z,17.52
2019-02-04T13:21:56.248Z,16.07
2019-02-04T13:24:26.366Z,18.23
2019-02-04T13:26:55.991Z,16.43
2019-02-04T13:29:26.394Z,16.30
2019-02-04T13:31:56.004Z,15.37
2019-02-04T13:34:26.293Z,16.70
2019-02-04T13:36:56.189Z,14.13
2019-02-04T13:39:26.678Z,12.60
2019-02-04T13:41:56.596Z,16.03
2019-02-04T13:44:26.389Z,14.03
2019-02-04T13:46:56.270Z,17.30
2019-02-04T13:49:26.332Z,13.62
2019-02-04T13:51:57.798Z,13.60
2019-02-04T13:54:28.345Z,13.83
2019-02-04T13:56:58.310Z,13.00
2019-02-04T13:59:28.001Z,13.43
2019-02-04T14:01:58.311Z,16.40
2019-02-04T14:04:28.219Z,14.53
2019-02-04T14:06:57.831Z,14.23
2019-02-04T14:09:27.509Z,11.43
2019-02-04T14:11:57.133Z,15.13
2019-02-04T14:14:26.873Z,14.80
2019-02-04T14:16:56.576Z,14.90
2019-02-04T14:19:26.427Z,15.60
2019-02-04T14:22:08.635Z,14.30
2019-02-04T14:24:28.472Z,13.90
2019-02-04T14:26:58.176Z,12.23
2019-02-04T14:29:28.336Z,10.40
2019-02-04T14:31:57.954Z,12.50
2019-02-04T14:34:27.569Z,12.57
2019-02-04T14:36:58.697Z,13.80
2019-02-04T14:39:28.925Z,14.07
2019-02-04T14:41:58.916Z,12.30
2019-02-04T14:44:36.453Z,13.60
2019-02-04T14:47:23.405Z,12.13
2019-02-04T14:50:21.370Z,13.37
2019-02-04T14:53:40.638Z,12.83
2019-02-04T14:56:42.267Z,12.23
2019-02-04T14:59:29.324Z,14.73
2019-02-04T15:02:37.120Z,10.43
2019-02-04T15:05:25.465Z,12.07
2019-02-04T15:08:44.128Z,13.53
2019-02-04T15:11:41.148Z,10.20
2019-02-04T15:14:56.594Z,11.57
2019-02-04T15:18:06.333Z,10.83
2019-02-04T15:21:19.945Z,10.27
2019-02-04T15:24:08.765Z,11.33
2019-02-04T15:27:11.160Z,11.33
2019-02-04T15:30:03.832Z,12.67
2019-02-04T15:33:08.116Z,10.00
2019-02-04T15:36:21.601Z,10.67
2019-02-04T15:38:58.315Z,10.93
2019-02-04T15:42:11.642Z,10.77
2019-02-04T15:45:12.491Z,14.60
2019-02-04T15:48:12.336Z,10.63
2019-02-04T15:51:06.570Z,10.33
2019-02-04T15:53:36.491Z,13.10
2019-02-04T15:56:07.425Z,10.77
2019-02-04T15:58:37.596Z,12.00
2019-02-04T16:01:07.248Z,11.17
2019-02-04T16:03:36.979Z,10.73
2019-02-04T16:06:06.830Z,10.67
2019-02-04T16:08:36.581Z,11.90
2019-02-04T16:11:06.613Z,12.50
2019-02-04T16:13:36.209Z,11.67
2019-02-04T16:16:05.914Z,11.87
2019-02-04T16:18:35.645Z,11.47
2019-02-04T16:21:05.722Z,8.80
2019-02-04T16:23:36.008Z,10.27
2019-02-04T16:26:06.058Z,12.67
2019-02-04T16:28:35.988Z,12.90
2019-02-04T16:31:05.852Z,13.60
2019-02-04T16:33:35.470Z,15.17
2019-02-04T16:36:05.388Z,12.27
2019-02-04T16:38:34.992Z,11.10
2019-02-04T16:41:05.861Z,11.90
2019-02-04T16:43:35.475Z,12.17
2019-02-04T16:46:05.661Z,12.93
2019-02-04T16:48:35.820Z,12.63
2019-02-04T16:51:11.775Z,12.13
2019-02-04T16:53:36.945Z,12.00
2019-02-04T16:56:07.320Z,12.30
2019-02-04T16:58:36.931Z,12.23
2019-02-04T17:01:06.961Z,12.57
2019-02-04T17:03:36.665Z,15.13
2019-02-04T17:06:06.502Z,14.17
2019-02-04T17:08:36.373Z,12.90
2019-02-04T17:11:06.535Z,13.00
2019-02-04T17:13:37.054Z,14.47
2019-02-04T17:16:07.083Z,11.90
2019-02-04T17:18:37.796Z,17.00
2019-02-04T17:21:07.795Z,13.33
2019-02-04T17:23:37.506Z,13.23
2019-02-04T17:26:08.125Z,14.23
2019-02-04T17:28:38.059Z,13.80
2019-02-04T17:31:07.945Z,14.80
2019-02-04T17:33:37.646Z,12.80
2019-02-04T17:36:07.714Z,14.90
2019-02-04T17:38:37.445Z,14.23
2019-02-04T17:41:07.572Z,16.63
2019-02-04T17:43:37.226Z,15.87
2019-02-04T17:46:06.896Z,15.50
2019-02-04T17:48:36.659Z,15.77
2019-02-04T17:51:06.277Z,17.77
2019-02-04T17:53:35.918Z,17.03
2019-02-04T17:56:07.680Z,16.50
2019-02-04T17:58:37.340Z,15.80
2019-02-04T18:01:07.466Z,15.80
2019-02-04T18:03:37.706Z,14.90
2019-02-04T18:06:07.535Z,14.93
2019-02-04T18:08:37.465Z,18.00
2019-02-04T18:11:07.530Z,14.90
2019-02-04T18:13:37.305Z,16.17
2019-02-04T18:16:07.116Z,14.57
2019-02-04T18:18:36.839Z,13.77
2019-02-04T18:21:06.542Z,16.70
2019-02-04T18:23:45.626Z,17.03
2019-02-04T18:26:07.594Z,15.70
2019-02-04T18:28:37.837Z,14.70
2019-02-04T18:31:07.595Z,14.43
2019-02-04T18:33:38.292Z,15.70
2019-02-04T18:36:07.958Z,15.57
2019-02-04T18:38:37.821Z,17.03
2019-02-04T18:41:07.604Z,16.13
2019-02-04T18:43:37.220Z,13.90
2019-02-04T18:46:07.087Z,15.70
2019-02-04T18:48:37.345Z,13.80
2019-02-04T18:51:07.118Z,14.07
2019-02-04T18:53:37.169Z,12.90
2019-02-04T18:56:07.318Z,14.23
2019-02-04T18:58:36.948Z,13.70
2019-02-04T19:01:06.647Z,13.23
2019-02-04T19:03:36.422Z,14.47
2019-02-04T19:06:06.165Z,13.27
2019-02-04T19:08:36.093Z,14.87
2019-02-04T19:11:06.193Z,12.90
2019-02-04T19:13:36.567Z,13.60
2019-02-04T19:16:06.417Z,13.70
2019-02-04T19:18:36.348Z,12.73
2019-02-04T19:21:06.159Z,13.77
2019-02-04T19:23:35.796Z,12.97
2019-02-04T19:26:05.849Z,11.97
2019-02-04T19:28:35.475Z,14.30
2019-02-04T19:31:14.071Z,13.70
2019-02-04T19:33:43.693Z,13.60
2019-02-04T19:36:13.470Z,12.73
2019-02-04T19:38:44.524Z,13.73
2019-02-04T19:41:14.312Z,13.13
2019-02-04T19:43:44.214Z,13.13
2019-02-04T19:46:13.940Z,11.50
2019-02-04T19:48:43.878Z,13.30
2019-02-04T19:51:13.590Z,11.60
2019-02-04T19:53:43.265Z,11.50
2019-02-04T19:56:12.989Z,12.03
2019-02-04T19:58:42.933Z,13.37
2019-02-04T20:01:12.711Z,10.10
2019-02-04T20:03:42.322Z,11.40
2019-02-04T20:06:12.085Z,13.67
2019-02-04T20:08:41.698Z,13.03
2019-02-04T20:11:11.702Z,11.87
2019-02-04T20:13:41.314Z,13.67
2019-02-04T20:16:11.408Z,11.03
2019-02-04T20:18:41.283Z,13.10
2019-02-04T20:21:11.365Z,12.20
2019-02-04T20:23:41.170Z,13.43
2019-02-04T20:26:10.945Z,12.80
2019-02-04T20:28:40.792Z,12.53
2019-02-04T20:31:10.825Z,12.60
2019-02-04T20:33:40.432Z,13.30
2019-02-04T20:36:10.501Z,11.53
2019-02-04T20:38:40.140Z,12.83
2019-02-04T20:41:10.246Z,12.33
2019-02-04T20:43:40.166Z,13.87
2019-02-04T20:46:10.174Z,12.70
2019-02-04T20:48:40.010Z,12.57
2019-02-04T20:51:09.814Z,10.20
2019-02-04T20:53:39.708Z,12.65
2019-02-04T20:56:09.692Z,12.40
2019-02-04T20:58:39.340Z,12.13
2019-02-04T21:01:09.324Z,11.77
2019-02-04T21:03:39.077Z,10.27
2019-02-04T21:06:08.717Z,12.10
2019-02-04T21:08:38.610Z,13.40
2019-02-04T21:11:08.729Z,14.17
2019-02-04T21:13:38.485Z,12.03
2019-02-04T21:16:08.485Z,10.70
2019-02-04T21:18:38.469Z,14.90
2019-02-04T21:21:08.210Z,12.23
2019-02-04T21:23:37.892Z,12.20
2019-02-04T21:26:07.830Z,12.00
2019-02-04T21:28:37.804Z,15.73
2019-02-04T21:31:07.544Z,15.47
2019-02-04T21:33:37.465Z,15.83
2019-02-04T21:36:07.257Z,12.17
2019-02-04T21:38:37.543Z,13.63
2019-02-04T21:41:07.228Z,15.20
2019-02-04T21:43:36.922Z,14.20
2019-02-04T21:46:06.818Z,12.53
2019-02-04T21:48:36.940Z,12.93
2019-02-04T21:51:06.869Z,12.13
2019-02-04T21:53:36.584Z,13.43
2019-02-04T21:56:06.498Z,12.40
2019-02-04T21:58:36.125Z,12.50
2019-02-04T22:01:06.092Z,12.67
2019-02-04T22:03:36.155Z,11.33
2019-02-04T22:06:06.165Z,13.63
2019-02-04T22:08:35.874Z,12.83
2019-02-04T22:11:05.566Z,14.73
2019-02-04T22:13:35.194Z,13.80
2019-02-04T22:16:04.992Z,12.77
2019-02-04T22:18:34.967Z,14.87
2019-02-04T22:21:05.245Z,13.70
2019-02-04T22:23:34.893Z,11.80
2019-02-04T22:26:04.785Z,12.07
2019-02-04T22:28:34.889Z,17.43
2019-02-04T22:31:04.772Z,12.97
2019-02-04T22:33:34.399Z,14.10
2019-02-04T22:36:04.414Z,13.90
2019-02-04T22:38:34.262Z,14.60
2019-02-04T22:41:04.260Z,15.33
2019-02-04T22:43:33.876Z,15.93
2019-02-04T22:46:04.291Z,13.63
2019-02-04T22:48:34.839Z,14.20
2019-02-04T22:51:04.843Z,13.17
2019-02-04T22:53:34.461Z,14.23
2019-02-04T22:56:04.688Z,15.03
2019-02-04T22:58:34.336Z,14.70
2019-02-04T23:01:26.550Z,15.67
2019-02-04T23:03:56.286Z,15.27
2019-02-04T23:06:27.101Z,16.30
2019-02-04T23:08:56.715Z,17.87
2019-02-04T23:11:26.417Z,15.03
2019-02-04T23:13:56.529Z,15.37
2019-02-04T23:16:26.164Z,17.17
2019-02-04T23:18:56.748Z,15.97
2019-02-04T23:21:26.442Z,16.70
2019-02-04T23:23:56.329Z,16.13
2019-02-04T23:26:26.021Z,17.07
2019-02-04T23:28:55.636Z,17.73
2019-02-04T23:31:25.742Z,16.27
2019-02-04T23:33:55.361Z,19.37
2019-02-04T23:36:25.145Z,17.90
2019-02-04T23:38:54.833Z,17.70
2019-02-04T23:41:24.772Z,18.17
2019-02-04T23:43:54.380Z,17.87
2019-02-04T23:46:24.157Z,18.93
2019-02-04T23:48:53.772Z,20.40
2019-02-04T23:51:23.801Z,19.80
2019-02-04T23:53:53.863Z,18.53
2019-02-04T23:56:24.408Z,19.80
2019-02-04T23:58:54.131Z,20.93
